createdAt,value
2018-12-11T00:00:38.228Z,0
2018-12-11T00:01:46.890Z,0
2018-12-11T00:02:55.569Z,0
2018-12-11T00:04:04.230Z,0
2018-12-11T00:05:13.216Z,0
2018-12-11T00:06:22.572Z,0
2018-12-11T00:07:31.248Z,0
2018-12-11T00:08:39.922Z,0
2018-12-11T00:09:48.593Z,0
2018-12-11T00:10:57.256Z,0
2018-12-11T00:12:05.936Z,0
2018-12-11T00:13:14.607Z,0
2018-12-11T00:14:23.273Z,0
2018-12-11T00:15:31.935Z,0
2018-12-11T00:16:40.608Z,0
2018-12-11T00:17:49.288Z,0
2018-12-11T00:18:58.207Z,0
2018-12-11T00:20:06.875Z,0
2018-12-11T00:21:15.535Z,0
2018-12-11T00:22:24.211Z,0
2018-12-11T00:23:32.877Z,0
2018-12-11T00:24:41.555Z,0
2018-12-11T00:25:50.211Z,0
2018-12-11T00:26:58.894Z,0
2018-12-11T00:28:07.838Z,0
2018-12-11T00:29:16.766Z,0
2018-12-11T00:30:25.432Z,0
2018-12-11T00:31:34.102Z,0
2018-12-11T00:32:42.770Z,0
2018-12-11T00:33:51.458Z,0
2018-12-11T00:35:00.384Z,0
2018-12-11T00:36:09.052Z,0
2018-12-11T00:37:17.711Z,0
2018-12-11T00:38:26.378Z,0
2018-12-11T00:39:35.057Z,0
2018-12-11T00:40:43.731Z,0
2018-12-11T00:41:52.400Z,0
2018-12-11T00:43:01.064Z,0
2018-12-11T00:44:09.741Z,0
2018-12-11T00:45:18.661Z,0
2018-12-11T00:46:27.326Z,0
2018-12-11T00:47:35.991Z,0
2018-12-11T00:48:44.667Z,0
2018-12-11T00:49:53.330Z,0
2018-12-11T00:51:02.253Z,0
2018-12-11T00:52:10.916Z,0
2018-12-11T00:53:19.582Z,0
2018-12-11T00:54:28.252Z,0
2018-12-11T00:55:36.920Z,0
2018-12-11T00:56:45.586Z,0
2018-12-11T00:57:54.243Z,0
2018-12-11T00:59:02.907Z,0
2018-12-11T01:00:11.576Z,0
2018-12-11T01:01:20.246Z,0
2018-12-11T01:02:28.907Z,0
2018-12-11T01:03:38.967Z,0
2018-12-11T01:04:47.637Z,0
2018-12-11T01:05:56.307Z,0
2018-12-11T01:07:04.966Z,0
2018-12-11T01:08:13.640Z,0
2018-12-11T01:09:22.307Z,0
2018-12-11T01:10:31.231Z,0
2018-12-11T01:11:40.159Z,0
2018-12-11T01:12:48.835Z,0
2018-12-11T01:13:57.506Z,0
2018-12-11T01:15:06.673Z,0
2018-12-11T01:16:15.350Z,0
2018-12-11T01:17:24.269Z,0
2018-12-11T01:18:32.942Z,0
2018-12-11T01:19:41.658Z,0
2018-12-11T01:20:52.039Z,0
2018-12-11T01:22:00.709Z,0
2018-12-11T01:23:09.375Z,0
2018-12-11T01:24:18.041Z,0
2018-12-11T01:25:26.718Z,0
2018-12-11T01:26:35.383Z,0
2018-12-11T01:27:44.051Z,0
2018-12-11T01:28:52.708Z,0
2018-12-11T01:30:01.384Z,0
2018-12-11T01:31:10.299Z,0
2018-12-11T01:32:18.965Z,0
2018-12-11T01:33:27.637Z,0
2018-12-11T01:34:36.299Z,0
2018-12-11T01:35:44.963Z,0
2018-12-11T01:36:53.631Z,0
2018-12-11T01:38:02.312Z,0
2018-12-11T01:39:11.480Z,0
2018-12-11T01:40:20.151Z,0
2018-12-11T01:41:29.072Z,0
2018-12-11T01:42:37.747Z,0
2018-12-11T01:43:46.404Z,0
2018-12-11T01:44:55.069Z,0
2018-12-11T01:46:03.985Z,0
2018-12-11T01:47:12.664Z,0
2018-12-11T01:48:21.326Z,0
2018-12-11T01:49:29.990Z,0
2018-12-11T01:50:38.972Z,0
2018-12-11T01:51:47.639Z,0
2018-12-11T01:52:56.312Z,0
2018-12-11T01:54:04.978Z,0
2018-12-11T01:55:13.931Z,0
2018-12-11T01:56:22.587Z,0
2018-12-11T01:57:31.261Z,0
2018-12-11T01:58:39.926Z,0
2018-12-11T01:59:48.596Z,0
2018-12-11T02:00:57.254Z,0
2018-12-11T02:02:05.929Z,0
2018-12-11T02:03:14.591Z,0
2018-12-11T02:04:23.268Z,0
2018-12-11T02:05:31.934Z,0
2018-12-11T02:06:40.607Z,0
2018-12-11T02:07:49.538Z,0
2018-12-11T02:08:58.479Z,0
2018-12-11T02:10:07.149Z,0
2018-12-11T02:11:15.817Z,0
2018-12-11T02:12:24.488Z,0
2018-12-11T02:13:33.148Z,0
2018-12-11T02:14:41.823Z,0
2018-12-11T02:15:50.479Z,0
2018-12-11T02:16:59.149Z,0
2018-12-11T02:18:07.811Z,0
2018-12-11T02:19:16.498Z,0
2018-12-11T02:20:25.157Z,0
2018-12-11T02:21:33.839Z,0
2018-12-11T02:22:42.761Z,0
2018-12-11T02:23:51.707Z,0
2018-12-11T02:25:00.374Z,0
2018-12-11T02:26:09.036Z,0
2018-12-11T02:27:17.700Z,0
2018-12-11T02:28:26.361Z,0
2018-12-11T02:29:35.044Z,0
2018-12-11T02:30:43.718Z,0
2018-12-11T02:31:52.397Z,0
2018-12-11T02:33:01.319Z,0
2018-12-11T02:34:10.006Z,0
2018-12-11T02:35:18.700Z,0
2018-12-11T02:36:27.399Z,0
2018-12-11T02:37:36.328Z,0
2018-12-11T02:38:45.004Z,0
2018-12-11T02:39:53.928Z,0
2018-12-11T02:41:02.602Z,0
2018-12-11T02:42:11.526Z,0
2018-12-11T02:43:20.219Z,0
2018-12-11T02:44:29.149Z,0
2018-12-11T02:45:37.825Z,0
2018-12-11T02:46:46.774Z,0
2018-12-11T02:47:55.697Z,0
2018-12-11T02:49:04.372Z,0
2018-12-11T02:50:13.054Z,0
2018-12-11T02:51:21.735Z,0
2018-12-11T02:52:30.407Z,0
2018-12-11T02:53:39.075Z,0
2018-12-11T02:54:48.031Z,0
2018-12-11T02:55:56.712Z,0
2018-12-11T02:57:05.392Z,0
2018-12-11T02:58:14.067Z,0
2018-12-11T02:59:22.738Z,0
2018-12-11T03:00:31.407Z,0
2018-12-11T03:01:40.081Z,0
2018-12-11T03:02:49.014Z,0
2018-12-11T03:03:57.691Z,0
2018-12-11T03:05:06.725Z,0
2018-12-11T03:06:17.267Z,0
2018-12-11T03:07:25.940Z,0
2018-12-11T03:08:34.623Z,0
2018-12-11T03:09:43.294Z,0
2018-12-11T03:10:52.223Z,0
2018-12-11T03:12:00.896Z,0
2018-12-11T03:13:09.575Z,0
2018-12-11T03:14:18.235Z,0
2018-12-11T03:15:27.160Z,0
2018-12-11T03:16:35.826Z,0
2018-12-11T03:17:45.277Z,0
2018-12-11T03:18:53.949Z,0
2018-12-11T03:20:02.889Z,0
2018-12-11T03:21:11.563Z,0
2018-12-11T03:22:20.495Z,0
2018-12-11T03:23:29.432Z,0
2018-12-11T03:24:38.361Z,0
2018-12-11T03:25:47.029Z,0
2018-12-11T03:26:55.705Z,0
2018-12-11T03:28:04.410Z,0
2018-12-11T03:29:13.079Z,0
2018-12-11T03:30:22.614Z,0
2018-12-11T03:31:31.575Z,0
2018-12-11T03:32:40.816Z,0
2018-12-11T03:33:49.485Z,0
2018-12-11T03:34:58.164Z,0
2018-12-11T03:36:06.833Z,0
2018-12-11T03:37:15.519Z,0
2018-12-11T03:38:24.440Z,0
2018-12-11T03:39:33.105Z,0
2018-12-11T03:40:41.782Z,0
2018-12-11T03:41:50.464Z,0
2018-12-11T03:42:59.255Z,0
2018-12-11T03:44:07.949Z,0
2018-12-11T03:45:16.700Z,0
2018-12-11T03:46:25.631Z,0
2018-12-11T03:47:34.299Z,0
2018-12-11T03:48:42.971Z,0
2018-12-11T03:49:51.933Z,0
2018-12-11T03:51:00.627Z,0
2018-12-11T03:52:09.297Z,0
2018-12-11T03:53:17.982Z,0
2018-12-11T03:54:26.958Z,0
2018-12-11T03:55:35.620Z,0
2018-12-11T03:56:44.288Z,0
2018-12-11T03:57:53.217Z,0
2018-12-11T03:59:01.977Z,0
2018-12-11T04:00:10.909Z,0
2018-12-11T04:01:19.853Z,0
2018-12-11T04:02:28.522Z,0
2018-12-11T04:03:37.202Z,0
2018-12-11T04:04:46.119Z,0
2018-12-11T04:05:54.793Z,0
2018-12-11T04:07:03.732Z,0
2018-12-11T04:08:12.658Z,0
2018-12-11T04:09:21.321Z,0
2018-12-11T04:10:30.261Z,0
2018-12-11T04:11:38.935Z,0
2018-12-11T04:12:47.693Z,0
2018-12-11T04:13:56.356Z,0
2018-12-11T04:15:05.026Z,0
2018-12-11T04:16:13.951Z,0
2018-12-11T04:17:22.632Z,0
2018-12-11T04:18:31.305Z,0
2018-12-11T04:19:40.226Z,0
2018-12-11T04:20:48.891Z,0
2018-12-11T04:21:57.579Z,0
2018-12-11T04:23:06.636Z,0
2018-12-11T04:24:15.301Z,0
2018-12-11T04:25:23.971Z,0
2018-12-11T04:26:32.633Z,0
2018-12-11T04:27:41.303Z,0
2018-12-11T04:28:49.973Z,0
2018-12-11T04:29:58.642Z,0
2018-12-11T04:31:07.594Z,0
2018-12-11T04:32:16.523Z,0
2018-12-11T04:33:25.192Z,0
2018-12-11T04:34:33.857Z,0
2018-12-11T04:35:43.021Z,0
2018-12-11T04:36:51.704Z,0
2018-12-11T04:38:00.382Z,0
2018-12-11T04:39:09.302Z,0
2018-12-11T04:40:17.989Z,0
2018-12-11T04:41:26.654Z,0
2018-12-11T04:42:35.341Z,0
2018-12-11T04:43:44.023Z,0
2018-12-11T04:44:52.704Z,0
2018-12-11T04:46:01.381Z,0
2018-12-11T04:47:10.353Z,0
2018-12-11T04:48:19.017Z,0
2018-12-11T04:49:27.682Z,0
2018-12-11T04:50:36.592Z,0
2018-12-11T04:51:45.267Z,0
2018-12-11T04:52:54.192Z,0
2018-12-11T04:54:02.858Z,0
2018-12-11T04:55:11.535Z,0
2018-12-11T04:56:20.188Z,0
2018-12-11T04:57:28.858Z,0
2018-12-11T04:58:37.532Z,0
2018-12-11T04:59:46.212Z,0
2018-12-11T05:00:55.125Z,0
2018-12-11T05:02:04.043Z,0
2018-12-11T05:03:12.705Z,0
2018-12-11T05:04:21.379Z,0
2018-12-11T05:05:30.029Z,0
2018-12-11T05:06:39.943Z,0
2018-12-11T05:07:48.610Z,0
2018-12-11T05:08:57.285Z,0
2018-12-11T05:10:05.957Z,0
2018-12-11T05:11:14.617Z,0
2018-12-11T05:12:23.280Z,0
2018-12-11T05:13:31.945Z,0
2018-12-11T05:14:40.618Z,0
2018-12-11T05:15:49.284Z,0
2018-12-11T05:16:57.962Z,0
2018-12-11T05:18:06.618Z,0
2018-12-11T05:19:15.295Z,0
2018-12-11T05:20:24.497Z,0
2018-12-11T05:21:33.172Z,0
2018-12-11T05:22:41.842Z,0
2018-12-11T05:23:50.528Z,0
2018-12-11T05:24:59.197Z,0
2018-12-11T05:26:07.867Z,0
2018-12-11T05:27:16.535Z,0
2018-12-11T05:28:25.205Z,0
2018-12-11T05:29:33.889Z,0
2018-12-11T05:30:42.622Z,0
2018-12-11T05:31:51.301Z,0
2018-12-11T05:32:59.960Z,0
2018-12-11T05:34:09.146Z,0
2018-12-11T05:35:18.168Z,0
2018-12-11T05:36:26.846Z,0
2018-12-11T05:37:35.508Z,0
2018-12-11T05:38:44.188Z,0
2018-12-11T05:39:52.863Z,0
2018-12-11T05:41:01.535Z,0
2018-12-11T05:42:10.194Z,0
2018-12-11T05:43:18.861Z,0
2018-12-11T05:44:27.536Z,0
2018-12-11T05:45:36.717Z,0
2018-12-11T05:46:45.389Z,0
2018-12-11T05:47:54.558Z,0
2018-12-11T05:49:03.219Z,0
2018-12-11T05:50:12.442Z,0
2018-12-11T05:51:21.647Z,0
2018-12-11T05:52:30.321Z,0
2018-12-11T05:53:39.002Z,0
2018-12-11T05:54:47.668Z,0
2018-12-11T05:55:56.343Z,0
2018-12-11T05:57:05.009Z,0
2018-12-11T05:58:13.677Z,0
2018-12-11T05:59:22.343Z,0
2018-12-11T06:00:31.035Z,0
2018-12-11T06:01:39.699Z,0
2018-12-11T06:02:48.373Z,0
2018-12-11T06:03:57.034Z,0
2018-12-11T06:05:05.703Z,0
2018-12-11T06:06:14.382Z,0
2018-12-11T06:07:23.068Z,0
2018-12-11T06:08:31.739Z,0
2018-12-11T06:09:40.653Z,0
2018-12-11T06:10:49.329Z,0
2018-12-11T06:11:57.991Z,0
2018-12-11T06:13:06.918Z,0
2018-12-11T06:14:15.589Z,0
2018-12-11T06:15:24.514Z,0
2018-12-11T06:16:33.179Z,0
2018-12-11T06:17:41.856Z,0
2018-12-11T06:18:50.514Z,0
2018-12-11T06:19:59.191Z,0
2018-12-11T06:21:07.859Z,0
2018-12-11T06:22:16.532Z,0
2018-12-11T06:23:25.199Z,0
2018-12-11T06:24:33.859Z,0
2018-12-11T06:25:42.526Z,0
2018-12-11T06:26:51.195Z,0
2018-12-11T06:27:59.875Z,0
2018-12-11T06:29:08.545Z,0
2018-12-11T06:30:17.233Z,0
2018-12-11T06:31:25.892Z,0
2018-12-11T06:32:34.562Z,0
2018-12-11T06:33:43.263Z,0
2018-12-11T06:34:51.928Z,0
2018-12-11T06:36:00.845Z,0
2018-12-11T06:37:09.520Z,0
2018-12-11T06:38:18.185Z,0
2018-12-11T06:39:26.856Z,0
2018-12-11T06:40:35.785Z,0
2018-12-11T06:41:44.456Z,0
2018-12-11T06:42:53.126Z,0
2018-12-11T06:44:01.791Z,0
2018-12-11T06:45:10.474Z,0
2018-12-11T06:46:19.135Z,0
2018-12-11T06:47:27.804Z,0
2018-12-11T06:48:36.485Z,0
2018-12-11T06:49:45.169Z,0
2018-12-11T06:50:53.834Z,0
2018-12-11T06:52:02.502Z,0
2018-12-11T06:53:11.428Z,0
2018-12-11T06:54:20.097Z,0
2018-12-11T06:55:28.760Z,0
2018-12-11T06:56:37.683Z,0
2018-12-11T06:57:46.352Z,0
2018-12-11T06:58:55.024Z,0
2018-12-11T07:00:03.691Z,0
2018-12-11T07:01:12.359Z,0
2018-12-11T07:02:21.025Z,0
2018-12-11T07:03:29.697Z,0
2018-12-11T07:04:38.371Z,0
2018-12-11T07:05:47.044Z,0
2018-12-11T07:06:55.713Z,0
2018-12-11T07:08:04.383Z,0
2018-12-11T07:09:13.057Z,0
2018-12-11T07:10:21.732Z,0
2018-12-11T07:11:30.406Z,0
2018-12-11T07:12:39.067Z,0
2018-12-11T07:13:47.739Z,0
2018-12-11T07:14:56.410Z,0
2018-12-11T07:16:05.083Z,0
2018-12-11T07:17:13.750Z,0
2018-12-11T07:18:28.127Z,0
2018-12-11T07:19:36.949Z,0
2018-12-11T07:20:45.905Z,0
2018-12-11T07:21:54.575Z,0
2018-12-11T07:23:03.234Z,5
2018-12-11T07:24:11.911Z,5
2018-12-11T07:25:20.582Z,5
2018-12-11T07:26:29.256Z,5
2018-12-11T07:27:37.921Z,5
2018-12-11T07:28:46.593Z,5
2018-12-11T07:29:55.259Z,5
2018-12-11T07:31:03.998Z,5
2018-12-11T07:32:12.672Z,5
2018-12-11T07:33:21.677Z,10
2018-12-11T07:34:30.354Z,10
2018-12-11T07:35:39.023Z,10
2018-12-11T07:36:47.689Z,10
2018-12-11T07:37:56.350Z,10
2018-12-11T07:39:05.034Z,10
2018-12-11T07:40:13.704Z,15
2018-12-11T07:41:22.623Z,15
2018-12-11T07:42:31.326Z,15
2018-12-11T07:43:39.990Z,15
2018-12-11T07:44:49.164Z,20
2018-12-11T07:45:57.827Z,20
2018-12-11T07:47:06.499Z,20
2018-12-11T07:48:15.166Z,20
2018-12-11T07:49:23.835Z,20
2018-12-11T07:50:32.498Z,25
2018-12-11T07:51:41.179Z,25
2018-12-11T07:52:49.849Z,25
2018-12-11T07:53:58.521Z,25
2018-12-11T07:55:07.187Z,25
2018-12-11T07:56:15.870Z,30
2018-12-11T07:57:24.535Z,30
2018-12-11T07:58:33.206Z,30
2018-12-11T07:59:41.872Z,30
2018-12-11T08:00:50.537Z,35
2018-12-11T08:01:59.275Z,35
2018-12-11T08:03:07.934Z,35
2018-12-11T08:04:16.662Z,35
2018-12-11T08:05:25.384Z,40
2018-12-11T08:06:34.047Z,40
2018-12-11T08:07:42.716Z,40
2018-12-11T08:08:51.387Z,40
2018-12-11T08:10:00.309Z,45
2018-12-11T08:11:08.974Z,45
2018-12-11T08:12:17.902Z,45
2018-12-11T08:13:26.571Z,50
2018-12-11T08:14:35.245Z,50
2018-12-11T08:15:44.175Z,50
2018-12-11T08:16:52.844Z,50
2018-12-11T08:18:01.503Z,60
2018-12-11T08:19:10.168Z,55
2018-12-11T08:20:18.836Z,55
2018-12-11T08:21:27.786Z,60
2018-12-11T08:22:36.454Z,60
2018-12-11T08:23:45.129Z,55
2018-12-11T08:24:53.797Z,55
2018-12-11T08:26:02.474Z,55
2018-12-11T08:27:11.142Z,55
2018-12-11T08:28:19.809Z,60
2018-12-11T08:29:28.469Z,60
2018-12-11T08:30:37.147Z,60
2018-12-11T08:31:46.071Z,60
2018-12-11T08:32:54.733Z,60
2018-12-11T08:34:03.399Z,65
2018-12-11T08:35:12.062Z,65
2018-12-11T08:36:20.741Z,65
2018-12-11T08:37:29.429Z,65
2018-12-11T08:38:38.361Z,70
2018-12-11T08:39:47.020Z,70
2018-12-11T08:40:55.695Z,75
2018-12-11T08:42:04.359Z,75
2018-12-11T08:43:13.288Z,70
2018-12-11T08:44:21.952Z,70
2018-12-11T08:45:30.633Z,70
2018-12-11T08:46:39.626Z,75
2018-12-11T08:47:48.584Z,75
2018-12-11T08:48:57.244Z,80
2018-12-11T08:50:05.926Z,80
2018-12-11T08:51:14.666Z,80
2018-12-11T08:52:23.600Z,75
2018-12-11T08:53:32.286Z,80
2018-12-11T08:54:40.943Z,70
2018-12-11T08:55:49.625Z,65
2018-12-11T08:56:58.334Z,65
2018-12-11T08:58:07.018Z,65
2018-12-11T08:59:15.682Z,70
2018-12-11T09:00:24.375Z,75
2018-12-11T09:01:33.047Z,70
2018-12-11T09:02:41.727Z,70
2018-12-11T09:03:50.641Z,65
2018-12-11T09:04:59.313Z,65
2018-12-11T09:06:07.981Z,70
2018-12-11T09:07:16.671Z,70
2018-12-11T09:08:25.605Z,75
2018-12-11T09:09:34.524Z,80
2018-12-11T09:10:43.241Z,80
2018-12-11T09:11:51.921Z,80
2018-12-11T09:13:00.858Z,80
2018-12-11T09:14:09.521Z,80
2018-12-11T09:15:18.718Z,80
2018-12-11T09:16:27.378Z,80
2018-12-11T09:17:36.057Z,85
2018-12-11T09:18:44.731Z,85
2018-12-11T09:19:53.406Z,100
2018-12-11T09:21:02.105Z,110
2018-12-11T09:22:10.804Z,120
2018-12-11T09:23:19.476Z,145
2018-12-11T09:24:28.186Z,175
2018-12-11T09:25:37.101Z,190
2018-12-11T09:26:45.772Z,180
2018-12-11T09:27:54.446Z,130
2018-12-11T09:29:03.123Z,100
2018-12-11T09:30:11.799Z,105
2018-12-11T09:31:20.467Z,105
2018-12-11T09:32:29.136Z,95
2018-12-11T09:33:37.814Z,100
2018-12-11T09:34:46.491Z,100
2018-12-11T09:35:55.158Z,100
2018-12-11T09:37:03.835Z,95
2018-12-11T09:38:12.514Z,85
2018-12-11T09:39:21.183Z,75
2018-12-11T09:40:33.386Z,70
2018-12-11T09:41:42.109Z,70
2018-12-11T09:42:50.782Z,85
2018-12-11T09:43:59.454Z,85
2018-12-11T09:45:08.126Z,100
2018-12-11T09:46:16.799Z,110
2018-12-11T09:47:25.505Z,115
2018-12-11T09:48:34.175Z,100
2018-12-11T09:49:42.854Z,95
2018-12-11T09:50:51.785Z,90
2018-12-11T09:52:00.463Z,80
2018-12-11T09:53:09.130Z,75
2018-12-11T09:54:17.814Z,70
2018-12-11T09:55:26.489Z,70
2018-12-11T09:56:35.576Z,80
2018-12-11T09:57:44.238Z,85
2018-12-11T09:58:52.919Z,90
2018-12-11T10:00:01.844Z,90
2018-12-11T10:01:10.519Z,90
2018-12-11T10:02:19.180Z,90
2018-12-11T10:03:27.913Z,85
2018-12-11T10:04:36.587Z,80
2018-12-11T10:05:45.253Z,80
2018-12-11T10:06:53.922Z,80
2018-12-11T10:08:02.586Z,80
2018-12-11T10:09:11.265Z,80
2018-12-11T10:10:19.941Z,80
2018-12-11T10:11:28.612Z,80
2018-12-11T10:12:37.274Z,85
2018-12-11T10:13:45.941Z,90
2018-12-11T10:14:54.609Z,110
2018-12-11T10:16:03.292Z,115
2018-12-11T10:17:11.950Z,110
2018-12-11T10:18:20.701Z,125
2018-12-11T10:19:29.366Z,130
2018-12-11T10:20:38.074Z,135
2018-12-11T10:21:47.026Z,140
2018-12-11T10:22:55.703Z,140
2018-12-11T10:24:04.370Z,145
2018-12-11T10:25:14.233Z,135
2018-12-11T10:26:22.908Z,115
2018-12-11T10:27:31.576Z,115
2018-12-11T10:28:40.254Z,110
2018-12-11T10:29:48.911Z,110
2018-12-11T10:30:57.596Z,110
2018-12-11T10:32:06.264Z,110
2018-12-11T10:33:14.940Z,110
2018-12-11T10:34:23.870Z,115
2018-12-11T10:35:32.555Z,105
2018-12-11T10:36:41.221Z,105
2018-12-11T10:37:50.142Z,105
2018-12-11T10:38:58.800Z,110
2018-12-11T10:40:07.736Z,110
2018-12-11T10:41:16.409Z,110
2018-12-11T10:42:25.079Z,105
2018-12-11T10:43:33.752Z,115
2018-12-11T10:44:43.510Z,115
2018-12-11T10:45:52.188Z,100
2018-12-11T10:47:00.849Z,105
2018-12-11T10:48:09.544Z,130
2018-12-11T10:49:18.202Z,125
2018-12-11T10:50:27.142Z,125
2018-12-11T10:51:35.810Z,125
2018-12-11T10:52:44.741Z,125
2018-12-11T10:53:53.403Z,125
2018-12-11T10:55:02.079Z,125
2018-12-11T10:56:11.262Z,125
2018-12-11T10:57:19.942Z,125
2018-12-11T10:58:28.610Z,125
2018-12-11T10:59:37.298Z,125
2018-12-11T11:00:46.082Z,130
2018-12-11T11:01:54.752Z,130
2018-12-11T11:03:03.699Z,135
2018-12-11T11:04:12.363Z,130
2018-12-11T11:05:21.032Z,135
2018-12-11T11:06:30.842Z,135
2018-12-11T11:07:51.603Z,135
2018-12-11T11:09:00.283Z,135
2018-12-11T11:10:08.996Z,135
2018-12-11T11:11:17.670Z,135
2018-12-11T11:12:26.391Z,140
2018-12-11T11:13:35.356Z,145
2018-12-11T11:14:44.049Z,150
2018-12-11T11:15:52.713Z,160
2018-12-11T11:17:01.397Z,165
2018-12-11T11:18:10.079Z,175
2018-12-11T11:19:18.759Z,175
2018-12-11T11:20:27.521Z,175
2018-12-11T11:21:36.319Z,170
2018-12-11T11:22:45.270Z,170
2018-12-11T11:23:53.938Z,160
2018-12-11T11:25:02.620Z,155
2018-12-11T11:26:11.293Z,160
2018-12-11T11:27:19.966Z,160
2018-12-11T11:28:28.909Z,145
2018-12-11T11:29:37.568Z,170
2018-12-11T11:30:46.253Z,180
2018-12-11T11:31:54.925Z,180
2018-12-11T11:33:03.861Z,170
2018-12-11T11:34:12.530Z,180
2018-12-11T11:35:21.201Z,180
2018-12-11T11:36:30.537Z,170
2018-12-11T11:37:39.723Z,160
2018-12-11T11:38:48.481Z,135
2018-12-11T11:39:57.228Z,135
2018-12-11T11:41:05.932Z,130
2018-12-11T11:42:14.656Z,135
2018-12-11T11:43:23.331Z,125
2018-12-11T11:44:31.994Z,125
2018-12-11T11:45:41.209Z,120
2018-12-11T11:46:49.937Z,145
2018-12-11T11:47:58.873Z,135
2018-12-11T11:49:07.531Z,135
2018-12-11T11:50:16.227Z,130
2018-12-11T11:51:24.905Z,125
2018-12-11T11:52:33.855Z,120
2018-12-11T11:53:42.527Z,120
2018-12-11T11:54:51.454Z,110
2018-12-11T11:56:00.124Z,115
2018-12-11T11:57:08.797Z,110
2018-12-11T11:58:17.475Z,110
2018-12-11T11:59:26.145Z,110
2018-12-11T12:00:34.820Z,110
2018-12-11T12:01:43.486Z,110
2018-12-11T12:02:52.178Z,110
2018-12-11T12:04:00.846Z,110
2018-12-11T12:05:09.771Z,110
2018-12-11T12:06:18.715Z,115
2018-12-11T12:07:27.396Z,115
2018-12-11T12:08:36.330Z,130
2018-12-11T12:09:45.002Z,135
2018-12-11T12:10:53.666Z,120
2018-12-11T12:12:02.339Z,115
2018-12-11T12:13:11.014Z,115
2018-12-11T12:14:19.696Z,115
2018-12-11T12:15:28.373Z,115
2018-12-11T12:16:37.293Z,110
2018-12-11T12:17:45.966Z,110
2018-12-11T12:18:54.651Z,110
2018-12-11T12:20:03.330Z,115
2018-12-11T12:21:11.989Z,125
2018-12-11T12:22:21.374Z,140
2018-12-11T12:23:30.142Z,145
2018-12-11T12:24:38.823Z,160
2018-12-11T12:25:47.494Z,170
2018-12-11T12:26:56.234Z,175
2018-12-11T12:28:05.034Z,180
2018-12-11T12:29:13.855Z,175
2018-12-11T12:30:22.661Z,165
2018-12-11T12:31:31.600Z,165
2018-12-11T12:32:40.272Z,150
2018-12-11T12:33:50.433Z,145
2018-12-11T12:34:59.109Z,140
2018-12-11T12:36:07.780Z,135
2018-12-11T12:37:16.452Z,135
2018-12-11T12:38:25.115Z,135
2018-12-11T12:39:33.809Z,135
2018-12-11T12:40:42.482Z,135
2018-12-11T12:41:51.247Z,125
2018-12-11T12:42:59.909Z,125
2018-12-11T12:44:08.837Z,125
2018-12-11T12:45:17.550Z,130
2018-12-11T12:46:26.249Z,125
2018-12-11T12:47:35.180Z,120
2018-12-11T12:48:44.268Z,95
2018-12-11T12:49:59.145Z,80
2018-12-11T12:51:08.329Z,75
2018-12-11T12:52:17.063Z,70
2018-12-11T12:53:25.739Z,65
2018-12-11T12:54:34.413Z,65
2018-12-11T12:55:43.084Z,70
2018-12-11T12:56:51.761Z,75
2018-12-11T12:58:00.423Z,75
2018-12-11T12:59:09.092Z,75
2018-12-11T13:00:17.769Z,80
2018-12-11T13:01:26.703Z,85
2018-12-11T13:02:35.375Z,85
2018-12-11T13:03:44.061Z,90
2018-12-11T13:04:52.744Z,90
2018-12-11T13:06:01.418Z,90
2018-12-11T13:07:10.094Z,90
2018-12-11T13:08:18.770Z,95
2018-12-11T13:09:27.749Z,95
2018-12-11T13:10:36.683Z,95
2018-12-11T13:11:45.370Z,95
2018-12-11T13:12:54.055Z,95
2018-12-11T13:14:02.986Z,95
2018-12-11T13:15:16.077Z,90
2018-12-11T13:16:24.762Z,95
2018-12-11T13:17:33.438Z,95
2018-12-11T13:18:42.113Z,90
2018-12-11T13:19:50.775Z,90
2018-12-11T13:20:59.452Z,90
2018-12-11T13:22:08.124Z,95
2018-12-11T13:23:16.795Z,100
2018-12-11T13:24:25.473Z,95
2018-12-11T13:25:34.146Z,105
2018-12-11T13:26:42.808Z,90
2018-12-11T13:27:51.475Z,95
2018-12-11T13:29:00.145Z,90
2018-12-11T13:30:08.840Z,95
2018-12-11T13:31:17.783Z,90
2018-12-11T13:32:26.462Z,90
2018-12-11T13:33:35.124Z,90
2018-12-11T13:34:43.944Z,90
2018-12-11T13:35:52.646Z,90
2018-12-11T13:37:01.322Z,85
2018-12-11T13:38:10.156Z,90
2018-12-11T13:39:18.953Z,90
2018-12-11T13:40:27.654Z,90
2018-12-11T13:41:36.338Z,90
2018-12-11T13:42:45.396Z,90
2018-12-11T13:43:54.357Z,90
2018-12-11T13:45:03.029Z,85
2018-12-11T13:46:11.873Z,85
2018-12-11T13:47:20.568Z,80
2018-12-11T13:48:32.102Z,75
2018-12-11T13:49:40.844Z,75
2018-12-11T13:50:49.516Z,70
2018-12-11T13:51:58.199Z,70
2018-12-11T13:53:06.864Z,70
2018-12-11T13:54:15.533Z,75
2018-12-11T13:55:24.215Z,70
2018-12-11T13:56:32.893Z,70
2018-12-11T13:57:41.554Z,65
2018-12-11T13:58:50.223Z,65
2018-12-11T13:59:58.885Z,60
2018-12-11T14:01:07.562Z,60
2018-12-11T14:02:16.930Z,60
2018-12-11T14:03:25.932Z,60
2018-12-11T14:04:34.611Z,55
2018-12-11T14:05:43.280Z,55
2018-12-11T14:06:52.210Z,55
2018-12-11T14:08:01.980Z,55
2018-12-11T14:09:10.720Z,55
2018-12-11T14:10:19.630Z,55
2018-12-11T14:11:28.317Z,55
2018-12-11T14:12:37.237Z,55
2018-12-11T14:13:45.907Z,55
2018-12-11T14:14:54.568Z,55
2018-12-11T14:16:03.255Z,55
2018-12-11T14:17:12.206Z,55
2018-12-11T14:18:20.876Z,50
2018-12-11T14:19:29.564Z,55
2018-12-11T14:20:38.231Z,55
2018-12-11T14:21:47.192Z,55
2018-12-11T14:22:55.857Z,55
2018-12-11T14:24:04.530Z,50
2018-12-11T14:25:13.202Z,50
2018-12-11T14:26:21.868Z,50
2018-12-11T14:27:30.539Z,50
2018-12-11T14:28:39.211Z,45
2018-12-11T14:29:47.886Z,45
2018-12-11T14:30:56.570Z,45
2018-12-11T14:32:05.259Z,40
2018-12-11T14:33:13.936Z,40
2018-12-11T14:34:22.604Z,40
2018-12-11T14:35:31.279Z,40
2018-12-11T14:36:40.012Z,35
2018-12-11T14:37:48.698Z,35
2018-12-11T14:38:57.624Z,35
2018-12-11T14:40:06.297Z,35
2018-12-11T14:41:15.214Z,35
2018-12-11T14:42:23.881Z,35
2018-12-11T14:43:32.812Z,30
2018-12-11T14:44:41.482Z,30
2018-12-11T14:45:50.565Z,30
2018-12-11T14:46:59.726Z,30
2018-12-11T14:48:09.156Z,25
2018-12-11T14:49:18.954Z,25
2018-12-11T14:50:28.459Z,25
2018-12-11T14:51:37.818Z,20
2018-12-11T14:52:49.570Z,20
2018-12-11T14:53:58.512Z,20
2018-12-11T14:55:08.024Z,20
2018-12-11T14:56:16.796Z,20
2018-12-11T14:57:30.900Z,15
2018-12-11T14:58:39.843Z,15
2018-12-11T14:59:48.958Z,15
2018-12-11T15:00:57.752Z,15
2018-12-11T15:02:07.105Z,15
2018-12-11T15:03:15.772Z,15
2018-12-11T15:04:24.700Z,10
2018-12-11T15:05:33.372Z,10
2018-12-11T15:06:42.041Z,10
2018-12-11T15:07:50.717Z,10
2018-12-11T15:08:59.388Z,5
2018-12-11T15:10:08.145Z,5
2018-12-11T15:11:16.812Z,5
2018-12-11T15:12:25.495Z,5
2018-12-11T15:13:34.245Z,5
2018-12-11T15:14:43.190Z,5
2018-12-11T15:15:51.860Z,5
2018-12-11T15:17:00.839Z,5
2018-12-11T15:18:09.555Z,5
2018-12-11T15:19:18.240Z,5
2018-12-11T15:20:26.917Z,0
2018-12-11T15:21:35.582Z,0
2018-12-11T15:22:44.249Z,0
2018-12-11T15:23:52.919Z,0
2018-12-11T15:25:01.582Z,0
2018-12-11T15:26:10.270Z,0
2018-12-11T15:27:18.991Z,0
2018-12-11T15:28:27.677Z,0
2018-12-11T15:29:36.595Z,0
2018-12-11T15:30:45.266Z,0
2018-12-11T15:31:54.190Z,0
2018-12-11T15:33:02.870Z,0
2018-12-11T15:34:11.540Z,0
2018-12-11T15:35:20.214Z,0
2018-12-11T15:36:29.387Z,0
2018-12-11T15:37:38.118Z,0
2018-12-11T15:38:47.074Z,0
2018-12-11T15:39:55.748Z,0
2018-12-11T15:41:04.672Z,0
2018-12-11T15:42:13.341Z,0
2018-12-11T15:43:22.047Z,0
2018-12-11T15:44:30.714Z,0
2018-12-11T15:45:39.382Z,0
2018-12-11T15:46:48.055Z,0
2018-12-11T15:47:56.793Z,0
2018-12-11T15:49:05.464Z,0
2018-12-11T15:50:14.145Z,0
2018-12-11T15:51:22.807Z,0
2018-12-11T15:52:31.487Z,0
2018-12-11T15:53:40.206Z,0
2018-12-11T15:54:48.876Z,0
2018-12-11T15:55:57.547Z,0
2018-12-11T15:57:06.615Z,0
2018-12-11T15:58:15.281Z,0
2018-12-11T15:59:23.954Z,0
2018-12-11T16:00:32.628Z,0
2018-12-11T16:01:41.294Z,0
2018-12-11T16:02:49.968Z,0
2018-12-11T16:03:58.890Z,0
2018-12-11T16:05:07.822Z,0
2018-12-11T16:06:16.495Z,0
2018-12-11T16:07:25.171Z,0
2018-12-11T16:08:33.836Z,0
2018-12-11T16:09:42.511Z,0
2018-12-11T16:10:51.177Z,0
2018-12-11T16:11:59.845Z,0
2018-12-11T16:13:08.510Z,0
2018-12-11T16:14:17.179Z,0
2018-12-11T16:15:25.850Z,0
2018-12-11T16:16:34.517Z,0
2018-12-11T16:17:43.192Z,0
2018-12-11T16:18:51.855Z,0
2018-12-11T16:20:00.530Z,0
2018-12-11T16:21:09.193Z,0
2018-12-11T16:22:17.866Z,0
2018-12-11T16:23:26.525Z,0
2018-12-11T16:24:35.203Z,0
2018-12-11T16:25:43.872Z,0
2018-12-11T16:26:52.556Z,0
2018-12-11T16:28:01.220Z,0
2018-12-11T16:29:09.915Z,0
2018-12-11T16:30:18.590Z,0
2018-12-11T16:31:27.261Z,0
2018-12-11T16:32:35.933Z,0
2018-12-11T16:33:44.597Z,0